This is the latest recevied weather packets stored in our database for station/object W5HKR. If no packets are shown the sender has not sent any weather packets the latest 10 day(s).
| Time | Temp. | Humidity | Pressure | Rain* | Wind** | Luminosity | Snow |
|---|---|---|---|---|---|---|---|
| 1778187503 | 20.56° C | 64% | 987.3 hPa | 0 mm | - | - | - |
| 1778187202 | 20.56° C | 64% | 987.2 hPa | 0 mm | - | - | - |
| 1778187112 | 20.56° C | 64% | 986.9 hPa | 0 mm | - | - | - |
| 1778186903 | 21.11° C | 65% | 987.5 hPa | 0 mm | - | - | - |
| 1778186601 | 21.11° C | 63% | 987.5 hPa | 0 mm | - | - | - |
| 1778186302 | 21.67° C | 64% | 987.3 hPa | 0 mm | - | - | - |
| 1778186034 | 20.56° C | 66% | 986.8 hPa | 0 mm | - | - | - |
| 1778186002 | 18.33° C | 91% | 990.6 hPa | 0 mm | - | - | - |
| 1778185702 | 18.33° C | 91% | 990.6 hPa | 0 mm | - | - | - |
| 1778185402 | 20.56° C | 68% | 987 hPa | 0 mm | - | - | - |
| 1778185101 | 18.33° C | 91% | 990.6 hPa | 0 mm | - | - | - |
| 1778184953 | 18.33° C | 91% | 990.6 hPa | 0 mm | - | - | - |
| 1778184802 | 18.33° C | 91% | 990.6 hPa | 0 mm | - | - | - |
| 1778184502 | 20.56° C | 70% | 987.5 hPa | 0 mm | - | - | - |
| 1778184201 | 20° C | 70% | 987.5 hPa | 0 mm | - | - | - |
| 1778183873 | 20° C | 70% | 987.2 hPa | 0 mm | - | - | - |
| 1778183601 | 20.56° C | 70% | 987.3 hPa | 0 mm | - | - | - |
| 1778183302 | 20.56° C | 69% | 987.5 hPa | 0 mm | - | - | - |
| 1778183002 | 20.56° C | 69% | 987.1 hPa | 0 mm | - | - | - |
| 1778182792 | 20.56° C | 72% | 987.1 hPa | 0 mm | - | - | - |
| 1778182702 | 20° C | 71% | 986.9 hPa | 0 mm | - | - | - |
| 1778182401 | 20° C | 71% | 987 hPa | 0 mm | - | - | - |
| 1778182103 | 18.33° C | 91% | 990.6 hPa | 0 mm | - | - | - |
| 1778181803 | 19.44° C | 74% | 987 hPa | 0 mm | - | - | - |
| 1778181712 | 18.33° C | 91% | 990.6 hPa | 0 mm | - | - | - |
* Rain latest hour (hover to see other rain measurements)
** Current wind speed in m/s (hover to see current wind gust speed)